.
WxDataArchive / Data Records for 2007-10-21
2007-10-20 October 2007 2007-10-22

Data Records for Sunday, 21 October 2007

Time	Temp	Chill	HIndex	Humid	Dewpt	 Wind 	HiWind	WindDir	Rain 	Barom 
-----	----	-----	------	-----	-----	------	------	-------	-----	----- 
00:00	59.3	59.3	59.3	55	43.1	1	3	248	0.00	29.836 
00:05	59.3	59.3	59.3	54	42.7	1	6	270	0.00	29.834 
00:10	59.5	59.5	59.5	54	42.8	1	5	248	0.00	29.833 
00:15	59.6	59.6	59.6	54	42.9	2	6	292	0.00	29.833 
00:20	59.6	59.6	59.6	54	42.9	2	6	248	0.00	29.834 
00:25	59.6	59.6	59.6	54	42.9	1	5	248	0.00	29.833 
00:30	59.6	59.6	59.6	54	42.9	1	4	248	0.00	29.833 
00:35	59.6	59.6	59.6	54	42.9	1	5	248	0.00	29.834 
00:40	59.5	59.5	59.5	54	42.8	1	3	248	0.00	29.835 
00:45	59.3	59.3	59.3	55	43.1	0	2	248	0.00	29.835 
00:50	59.3	59.3	59.3	55	43.1	1	4	248	0.00	29.835 
00:55	59.5	59.5	59.5	55	43.3	1	6	248	0.00	29.835 
01:00	59.6	59.6	59.6	54	42.9	1	6	248	0.00	29.836 
01:05	59.6	59.6	59.6	55	43.4	1	5	292	0.00	29.833 
01:10	59.6	59.6	59.6	55	43.4	2	5	248	0.00	29.832 
01:15	59.6	59.6	59.6	54	42.9	1	5	248	0.00	29.833 
01:20	59.6	59.6	59.6	54	42.9	1	6	248	0.00	29.836 
01:25	59.8	59.8	59.8	54	43.1	1	6	248	0.00	29.839 
01:30	59.9	59.9	59.9	54	43.2	2	6	248	0.00	29.841 
01:35	59.9	59.9	59.9	54	43.2	1	5	270	0.00	29.842 
01:40	59.9	59.9	59.9	54	43.2	2	6	248	0.00	29.844 
01:45	60.1	60.1	60.1	54	43.4	2	7	292	0.00	29.844 
01:50	60.2	60.2	60.2	54	43.5	1	4	248	0.00	29.846 
01:55	60.1	60.1	60.1	54	43.4	1	5	248	0.00	29.848 
02:00	60.2	60.2	60.2	54	43.5	1	6	248	0.00	29.848 
02:05	60.2	60.2	60.2	54	43.5	1	4	248	0.00	29.847 
02:10	60.1	60.1	60.1	54	43.4	1	4	248	0.00	29.850 
02:15	60.1	60.1	60.1	54	43.4	1	4	248	0.00	29.853 
02:20	60.2	60.2	60.2	53	43.0	1	7	270	0.00	29.856 
02:25	60.4	60.4	60.4	53	43.2	1	4	248	0.00	29.859 
02:30	60.4	60.4	60.4	53	43.2	1	5	248	0.00	29.860 
02:35	60.4	60.4	60.4	53	43.2	1	4	248	0.00	29.861 
02:40	60.4	60.4	60.4	53	43.2	2	7	248	0.00	29.861 
02:45	60.4	60.4	60.4	53	43.2	2	6	248	0.00	29.860 
02:50	60.2	60.2	60.2	53	43.0	1	5	248	0.00	29.859 
02:55	60.1	60.1	60.1	54	43.4	1	5	248	0.00	29.856 
03:00	60.1	60.1	60.1	54	43.4	2	5	225	0.00	29.856 
03:05	60.1	60.1	60.1	54	43.4	1	4	248	0.00	29.854 
03:10	59.8	59.8	59.8	55	43.6	1	9	292	0.00	29.854 
03:15	59.8	59.8	59.8	54	43.1	2	9	248	0.00	29.862 
03:20	59.8	59.8	59.8	54	43.1	2	5	248	0.00	29.862 
03:25	59.6	59.6	59.6	55	43.4	1	3	248	0.00	29.865 
03:30	59.5	59.5	59.5	55	43.3	1	3	248	0.00	29.863 
03:35	59.3	59.3	59.3	55	43.1	1	5	248	0.00	29.864 
03:40	59.2	59.2	59.2	56	43.5	1	3	248	0.00	29.864 
03:45	59.0	59.0	59.0	56	43.3	1	4	248	0.00	29.864 
03:50	59.0	59.0	59.0	56	43.3	1	5	248	0.00	29.867 
03:55	59.0	59.0	59.0	56	43.3	1	3	248	0.00	29.865 
04:00	58.9	58.9	58.9	57	43.7	1	4	248	0.00	29.864 
04:05	58.7	58.7	58.7	57	43.5	1	4	270	0.00	29.868 
04:10	58.7	58.7	58.7	57	43.5	0	3	248	0.00	29.869 
04:15	58.4	58.4	58.4	58	43.7	1	5	248	0.00	29.870 
04:20	58.3	58.3	58.3	58	43.6	0	2	248	0.00	29.870 
04:25	58.1	58.1	58.1	58	43.4	1	5	248	0.00	29.871 
04:30	58.1	58.1	58.1	58	43.4	1	4	248	0.00	29.871 
04:35	58.1	58.1	58.1	58	43.4	1	4	248	0.00	29.873 
04:40	58.1	58.1	58.1	59	43.8	1	6	270	0.00	29.871 
04:45	58.1	58.1	58.1	59	43.8	1	3	248	0.00	29.872 
04:50	58.0	58.0	58.0	59	43.8	1	4	248	0.00	29.871 
04:55	57.8	57.8	57.8	59	43.6	0	3	270	0.00	29.873 
05:00	57.6	57.6	57.6	59	43.4	0	3	270	0.00	29.875 
05:05	57.8	57.8	57.8	59	43.6	0	3	270	0.00	29.881 
05:10	58.0	58.0	58.0	58	43.3	1	6	248	0.00	29.883 
05:15	58.3	58.3	58.3	58	43.6	1	4	248	0.00	29.884 
05:20	58.3	58.3	58.3	58	43.6	1	5	248	0.00	29.885 
05:25	58.3	58.3	58.3	58	43.6	1	4	248	0.00	29.888 
05:30	58.4	58.4	58.4	57	43.2	2	7	248	0.00	29.889 
05:35	58.4	58.4	58.4	57	43.2	1	4	248	0.00	29.890 
05:40	58.6	58.6	58.6	57	43.4	2	5	248	0.00	29.890 
05:45	58.6	58.6	58.6	57	43.4	1	5	248	0.00	29.887 
05:50	58.7	58.7	58.7	57	43.5	1	4	248	0.00	29.891 
05:55	58.7	58.7	58.7	56	43.0	1	7	270	0.00	29.896 
06:00	58.7	58.7	58.7	56	43.0	1	5	248	0.00	29.898 
06:05	58.7	58.7	58.7	56	43.0	1	5	248	0.00	29.900 
06:10	58.6	58.6	58.6	57	43.4	1	3	248	0.00	29.901 
06:15	58.4	58.4	58.4	57	43.2	1	5	248	0.00	29.903 
06:20	58.4	58.4	58.4	57	43.2	1	5	270	0.00	29.903 
06:25	58.3	58.3	58.3	57	43.1	1	3	270	0.00	29.904 
06:30	58.1	58.1	58.1	58	43.4	1	2	270	0.00	29.903 
06:35	57.8	57.8	57.8	58	43.1	1	3	338	0.00	29.902 
06:40	57.6	57.6	57.6	59	43.4	0	1	248	0.00	29.903 
06:45	57.3	57.3	57.3	59	43.1	0	2	248	0.00	29.903 
06:50	57.0	57.0	57.0	60	43.3	0	1	248	0.00	29.903 
06:55	56.7	56.7	56.7	61	43.4	0	1	248	0.00	29.905 
07:00	56.5	56.5	56.5	62	43.6	0	1	225	0.00	29.906 
07:05	56.2	56.2	56.2	62	43.4	0	2	270	0.00	29.910 
07:10	55.7	55.7	55.7	64	43.7	0	1	270	0.00	29.909 
07:15	55.6	55.6	55.6	64	43.6	0	1	270	0.00	29.909 
07:20	55.3	55.3	55.3	65	43.7	0	1	270	0.00	29.911 
07:25	55.1	55.1	55.1	65	43.5	0	1	270	0.00	29.912 
07:30	55.0	55.0	55.0	66	43.9	0	2	270	0.00	29.915 
07:35	55.1	55.1	55.1	66	43.9	0	3	45	0.00	29.916 
07:40	55.3	55.3	55.3	65	43.7	0	2	248	0.00	29.918 
07:45	55.6	55.6	55.6	65	44.0	0	3	225	0.00	29.919 
07:50	55.9	55.9	55.9	65	44.3	0	3	248	0.00	29.919 
07:55	56.3	56.3	56.3	64	44.3	1	4	248	0.00	29.919 
08:00	56.7	56.7	56.7	63	44.2	1	4	248	0.00	29.922 
08:05	57.2	57.2	57.2	62	44.3	1	3	270	0.00	29.920 
08:10	57.6	57.6	57.6	62	44.7	0	4	248	0.00	29.919 
08:15	58.0	58.0	58.0	61	44.6	1	4	248	0.00	29.920 
08:20	58.3	58.3	58.3	61	44.9	0	5	248	0.00	29.920 
08:25	58.7	58.7	58.7	61	45.3	1	3	248	0.00	29.920 
08:30	59.3	59.3	59.3	58	44.5	2	5	270	0.00	29.921 
08:35	59.9	59.9	59.9	57	44.6	1	3	248	0.00	29.919 
08:40	60.5	60.5	60.5	55	44.2	1	4	270	0.00	29.918 
08:45	61.2	61.2	61.2	55	44.9	1	6	248	0.00	29.918 
08:50	61.6	61.6	61.6	54	44.8	2	5	270	0.00	29.917 
08:55	62.1	62.1	62.1	53	44.8	2	9	270	0.00	29.917 
09:00	62.6	62.6	62.6	53	45.2	1	4	248	0.00	29.916 
09:05	62.9	62.9	62.9	53	45.5	2	7	270	0.00	29.919 
09:10	63.4	63.4	63.4	52	45.5	1	7	248	0.00	29.919 
09:15	63.7	63.7	63.7	51	45.2	2	7	270	0.00	29.917 
09:20	64.2	64.2	64.2	49	44.6	3	6	248	0.00	29.920 
09:25	64.8	64.8	64.8	50	45.7	3	6	270	0.00	29.920 
09:30	65.2	65.2	65.2	48	45.0	3	9	270	0.00	29.922 
09:35	65.6	65.6	65.6	47	44.8	3	7	270	0.00	29.918 
09:40	66.3	66.3	66.3	47	45.5	2	7	248	0.00	29.919 
09:45	66.6	66.6	66.6	46	45.2	3	10	248	0.00	29.921 
09:50	67.1	67.1	67.1	45	45.0	3	9	248	0.00	29.920 
09:55	67.4	67.4	67.4	45	45.3	3	7	248	0.00	29.916 
10:00	67.9	67.9	67.9	45	45.8	3	7	248	0.00	29.914 
10:05	68.4	68.4	68.4	43	45.0	3	7	248	0.00	29.915 
10:10	68.9	68.9	68.9	42	44.9	3	10	248	0.00	29.912 
10:15	69.1	69.1	69.1	42	45.0	4	9	248	0.00	29.912 
10:20	69.6	69.6	69.6	42	45.5	3	7	248	0.00	29.913 
10:25	70.1	70.1	70.1	42	45.9	3	11	248	0.00	29.912 
10:30	70.1	70.1	70.1	41	45.3	4	11	248	0.00	29.911 
10:35	70.4	70.4	70.4	41	45.6	3	9	248	0.00	29.912 
10:40	70.8	70.8	70.8	39	44.6	3	9	270	0.00	29.909 
10:45	71.1	71.1	71.1	39	44.9	3	11	270	0.00	29.909 
10:50	71.6	71.6	71.6	40	46.0	2	9	292	0.00	29.908 
10:55	72.0	72.0	72.0	36	43.6	5	12	270	0.00	29.906 
11:00	72.3	72.3	72.3	39	45.9	2	9	270	0.00	29.906 
11:05	72.7	72.7	72.7	36	44.2	5	13	270	0.00	29.898 
11:10	73.0	73.0	73.0	36	44.5	4	14	270	0.00	29.904 
11:15	73.3	73.3	73.3	34	43.2	4	15	248	0.00	29.903 
11:20	73.5	73.5	73.5	34	43.4	4	11	270	0.00	29.901 
11:25	74.0	74.0	74.0	34	43.8	3	12	270	0.00	29.901 
11:30	74.6	74.6	74.6	36	45.9	2	10	270	0.00	29.899 
11:35	74.7	74.7	74.7	32	42.9	4	12	248	0.00	29.898 
11:40	74.9	74.9	74.9	33	43.8	4	14	248	0.00	29.899 
11:45	75.3	75.3	77.3	34	45.0	3	8	270	0.00	29.895 
11:50	75.8	75.8	77.3	31	43.0	5	13	270	0.00	29.894 
11:55	76.0	76.0	77.2	29	41.4	5	11	248	0.00	29.895 
12:00	76.3	76.3	77.3	29	41.7	5	14	248	0.00	29.895 
12:05	76.7	76.7	77.4	28	41.1	4	11	270	0.00	29.889 
12:10	77.2	77.2	77.6	28	41.6	3	9	248	0.00	29.888 
12:15	77.0	77.0	77.5	27	40.4	5	14	270	0.00	29.888 
12:20	77.2	77.2	77.7	29	42.5	3	12	248	0.00	29.889 
12:25	77.2	77.2	77.6	27	40.6	4	12	270	0.00	29.886 
12:30	77.2	77.2	77.6	27	40.6	4	9	270	0.00	29.887 
12:35	77.2	77.2	77.6	28	41.6	2	6	248	0.00	29.884 
12:40	77.4	77.4	77.7	28	41.7	2	8	270	0.00	29.881 
12:45	77.6	77.6	77.7	27	41.0	3	10	248	0.00	29.877 
12:50	77.4	77.4	77.7	28	41.7	3	9	270	0.00	29.875 
12:55	77.6	77.6	77.7	27	41.0	3	10	248	0.00	29.871 
13:00	77.4	77.4	77.7	28	41.7	3	10	270	0.00	29.872 
13:05	77.6	77.6	77.8	28	41.9	2	5	248	0.00	29.870 
13:10	77.6	77.6	77.7	27	41.0	4	12	270	0.00	29.870 
13:15	77.4	77.4	77.7	28	41.7	3	7	248	0.00	29.866 
13:20	77.4	77.4	77.6	27	40.8	3	16	270	0.00	29.864 
13:25	77.4	77.4	77.6	27	40.8	4	10	270	0.00	29.860 
13:30	77.6	77.6	77.8	28	41.9	3	10	270	0.00	29.856 
13:35	77.9	77.9	78.1	30	43.9	2	9	248	0.00	29.855 
13:40	77.9	77.9	77.9	27	41.2	4	11	270	0.00	29.855 
13:45	78.3	78.3	78.1	27	41.5	3	9	270	0.00	29.853 
13:50	78.5	78.5	78.2	28	42.7	2	6	270	0.00	29.855 
13:55	78.3	78.3	78.1	28	42.5	4	12	292	0.00	29.852 
14:00	78.3	78.3	78.0	26	40.6	4	10	270	0.00	29.849 
14:05	78.5	78.5	78.2	28	42.7	2	6	270	0.00	29.847 
14:10	78.5	78.5	78.2	28	42.7	3	11	270	0.00	29.848 
14:15	78.5	78.5	78.1	26	40.7	3	9	270	0.00	29.848 
14:20	78.3	78.3	78.0	26	40.6	4	13	270	0.00	29.843 
14:25	78.1	78.1	78.0	27	41.4	4	11	270	0.00	29.843 
14:30	78.3	78.3	78.1	28	42.5	3	10	248	0.00	29.841 
14:35	78.3	78.3	78.1	28	42.5	3	9	248	0.00	29.840 
14:40	78.5	78.5	78.2	27	41.7	3	11	248	0.00	29.840 
14:45	78.6	78.6	78.2	27	41.8	3	8	270	0.00	29.840 
14:50	78.6	78.6	78.2	27	41.8	4	13	248	0.00	29.840 
14:55	78.5	78.5	78.2	28	42.7	3	11	248	0.00	29.840 
15:00	78.5	78.5	78.2	28	42.7	3	7	270	0.00	29.839 
15:05	78.5	78.5	78.2	27	41.7	3	12	270	0.00	29.841 
15:10	78.5	78.5	78.2	28	42.7	3	7	270	0.00	29.840 
15:15	78.1	78.1	78.0	27	41.4	3	11	225	0.00	29.842 
15:20	77.2	77.2	77.7	29	42.5	2	6	315	0.00	29.843 
15:25	76.5	76.5	77.4	29	41.9	2	7	270	0.00	29.844 
15:30	76.3	76.3	77.5	31	43.4	1	5	270	0.00	29.844 
15:35	75.8	75.8	77.3	31	43.0	2	5	90	0.00	29.843 
15:40	75.6	75.6	77.2	31	42.8	3	6	248	0.00	29.843 
15:45	75.4	75.4	77.2	32	43.5	2	5	90	0.00	29.842 
15:50	75.4	75.4	77.1	31	42.6	2	7	90	0.00	29.843 
15:55	75.4	75.4	77.3	33	44.3	2	10	0	0.00	29.843 
16:00	76.0	76.0	77.5	33	44.8	2	5	90	0.00	29.842 
16:05	76.5	76.5	77.5	31	43.6	2	7	248	0.00	29.843 
16:10	76.7	76.7	77.5	30	42.9	3	13	248	0.00	29.841 
16:15	76.5	76.5	77.5	31	43.6	2	9	68	0.00	29.842 
16:20	76.3	76.3	77.7	36	47.4	1	5	135	0.00	29.841 
16:25	76.1	76.1	77.4	32	44.1	2	8	270	0.00	29.842 
16:30	76.0	76.0	77.3	31	43.2	2	6	90	0.00	29.842 
16:35	75.8	75.8	77.3	32	43.8	3	9	270	0.00	29.844 
16:40	75.4	75.4	77.2	32	43.5	2	5	68	0.00	29.845 
16:45	75.1	75.1	77.2	33	44.0	3	11	112	0.00	29.848 
16:50	74.9	74.9	74.9	33	43.8	2	5	112	0.00	29.848 
16:55	74.9	74.9	74.9	33	43.8	2	7	90	0.00	29.850 
17:00	74.6	74.6	74.6	33	43.6	1	4	68	0.00	29.849 
17:05	74.4	74.4	74.4	33	43.4	1	5	292	0.00	29.855 
17:10	74.0	74.0	74.0	34	43.8	1	3	0	0.00	29.857 
17:15	73.7	73.7	73.7	34	43.6	1	4	45	0.00	29.858 
17:20	73.7	73.7	73.7	35	44.3	2	12	90	0.00	29.858 
17:25	73.3	73.3	73.3	35	44.0	1	4	90	0.00	29.859 
17:30	73.2	73.2	73.2	35	43.9	2	9	90	0.00	29.859 
17:35	73.0	73.0	73.0	36	44.5	1	5	90	0.00	29.859 
17:40	72.8	72.8	72.8	36	44.3	2	5	45	0.00	29.859 
17:45	72.5	72.5	72.5	36	44.0	1	6	90	0.00	29.859 
17:50	72.3	72.3	72.3	36	43.8	1	4	68	0.00	29.860 
17:55	71.8	71.8	71.8	37	44.1	1	3	112	0.00	29.862 
18:00	71.6	71.6	71.6	37	43.9	1	3	22	0.00	29.863 
18:05	71.3	71.3	71.3	39	45.1	1	3	90	0.00	29.866 
18:10	70.9	70.9	70.9	38	44.0	1	2	45	0.00	29.869 
18:15	70.9	70.9	70.9	38	44.0	2	7	90	0.00	29.869 
18:20	70.9	70.9	70.9	38	44.0	1	4	90	0.00	29.870 
18:25	70.8	70.8	70.8	39	44.6	1	4	90	0.00	29.873 
18:30	70.6	70.6	70.6	38	43.7	2	6	90	0.00	29.874 
18:35	70.6	70.6	70.6	38	43.7	2	5	112	0.00	29.873 
18:40	70.6	70.6	70.6	38	43.7	2	5	112	0.00	29.875 
18:45	70.4	70.4	70.4	39	44.2	1	4	90	0.00	29.880 
18:50	70.3	70.3	70.3	38	43.5	1	5	45	0.00	29.881 
18:55	69.9	69.9	69.9	39	43.8	1	4	68	0.00	29.880 
19:00	69.8	69.8	69.8	39	43.7	1	4	338	0.00	29.880 
19:05	69.6	69.6	69.6	39	43.5	1	5	292	0.00	29.882 
19:10	69.6	69.6	69.6	40	44.2	2	6	90	0.00	29.882 
19:15	69.3	69.3	69.3	40	43.9	1	4	68	0.00	29.882 
19:20	69.1	69.1	69.1	41	44.4	1	4	135	0.00	29.884 
19:25	68.9	68.9	68.9	41	44.2	1	5	90	0.00	29.884 
19:30	68.6	68.6	68.6	42	44.6	1	5	68	0.00	29.887 
19:35	68.4	68.4	68.4	42	44.4	1	4	68	0.00	29.892 
19:40	68.1	68.1	68.1	42	44.1	1	4	68	0.00	29.889 
19:45	67.9	67.9	67.9	43	44.6	1	4	22	0.00	29.889 
19:50	67.8	67.8	67.8	43	44.5	1	5	45	0.00	29.890 
19:55	67.8	67.8	67.8	42	43.9	1	3	68	0.00	29.892 
20:00	67.6	67.6	67.6	43	44.3	1	3	68	0.00	29.896 
20:05	67.4	67.4	67.4	43	44.1	1	4	90	0.00	29.891 
20:10	67.3	67.3	67.3	44	44.6	1	4	68	0.00	29.894 
20:15	67.3	67.3	67.3	44	44.6	1	6	68	0.00	29.899 
20:20	67.1	67.1	67.1	44	44.5	0	3	248	0.00	29.904 
20:25	66.8	66.8	66.8	44	44.2	0	3	292	0.00	29.904 
20:30	66.6	66.6	66.6	45	44.6	1	4	270	0.00	29.908 
20:35	66.4	66.4	66.4	46	45.0	0	6	315	0.00	29.908 
20:40	66.3	66.3	66.3	45	44.3	0	2	225	0.00	29.911 
20:45	66.1	66.1	66.1	46	44.7	0	3	90	0.00	29.911 
20:50	65.8	65.8	65.8	46	44.4	1	2	338	0.00	29.913 
20:55	65.5	65.5	65.5	47	44.7	0	2	315	0.00	29.913 
21:00	65.2	65.2	65.2	48	45.0	0	2	270	0.00	29.921 
21:05	65.2	65.2	65.2	47	44.5	1	5	248	0.00	29.917 
21:10	64.8	64.8	64.8	48	44.6	0	1	338	0.00	29.921 
21:15	64.5	64.5	64.5	49	44.9	0	3	225	0.00	29.922 
21:20	64.2	64.2	64.2	50	45.2	0	1	248	0.00	29.923 
21:25	63.7	63.7	63.7	50	44.7	0	0	---	0.00	29.924 
21:30	63.2	63.2	63.2	51	44.8	0	0	---	0.00	29.926 
21:35	62.7	62.7	62.7	52	44.8	0	1	248	0.00	29.929 
21:40	62.3	62.3	62.3	53	44.9	0	0	---	0.00	29.932 
21:45	62.0	62.0	62.0	54	45.2	0	0	---	0.00	29.933 
21:50	61.5	61.5	61.5	55	45.2	0	0	---	0.00	29.934 
21:55	61.0	61.0	61.0	55	44.7	0	0	---	0.00	29.939 
22:00	60.7	60.7	60.7	56	44.9	0	0	---	0.00	29.940 
22:05	60.4	60.4	60.4	57	45.1	0	0	---	0.00	29.939 
22:10	60.1	60.1	60.1	57	44.8	0	1	248	0.00	29.938 
22:15	59.8	59.8	59.8	58	45.0	0	0	---	0.00	29.939 
22:20	59.3	59.3	59.3	59	45.0	0	0	---	0.00	29.941 
22:25	58.9	58.9	58.9	60	45.0	0	0	---	0.00	29.946 
22:30	58.3	58.3	58.3	62	45.3	0	0	---	0.00	29.946 
22:35	57.8	57.8	57.8	63	45.3	0	0	---	0.00	29.952 
22:40	57.2	57.2	57.2	65	45.5	0	0	---	0.00	29.954 
22:45	56.7	56.7	56.7	66	45.5	0	0	---	0.00	29.956 
22:50	56.3	56.3	56.3	67	45.5	0	0	---	0.00	29.956 
22:55	55.9	55.9	55.9	68	45.5	0	0	---	0.00	29.956 
23:00	55.4	55.4	55.4	69	45.4	0	0	---	0.00	29.957 
23:05	55.0	55.0	55.0	69	45.0	0	0	---	0.00	29.955 
23:10	54.7	54.7	54.7	71	45.5	0	0	---	0.00	29.955 
23:15	54.5	54.5	54.5	71	45.3	0	0	---	0.00	29.955 
23:20	54.2	54.2	54.2	71	45.0	0	0	---	0.00	29.955 
23:25	54.1	54.1	54.1	72	45.3	0	0	---	0.00	29.955 
23:30	53.8	53.8	53.8	73	45.3	0	0	---	0.00	29.955 
23:35	53.5	53.5	53.5	73	45.1	0	0	---	0.00	29.955 
23:40	53.5	53.5	53.5	74	45.4	0	0	---	0.00	29.955 
23:45	53.3	53.3	53.3	74	45.2	0	0	---	0.00	29.957 
23:50	53.1	53.1	53.1	75	45.4	0	0	---	0.00	29.957 
23:55	52.9	52.9	52.9	75	45.2	0	0	---	0.00	29.957 

CoCoRaHS
IN-AL-39
A2 Web Hosting
Creative Commons License
GoDaddy
Look for:

loaded 2017-12-12 07:26:25 • last modified 2010-11-18 10:43:29
Privacy PolicyDisclaimer
• wx.awcolley.com is powered by PmWiki v.2002016 •
• all content (unless otherwise noted) © 2017 A W Colley